sensor_id;sensor_type;location;lat;lon;timestamp;pressure;altitude;pressure_sealevel;temperature;humidity
48200;BME280;33990;44.602;10.976;2023-04-15T00:01:13;99897.72;;;18.70;47.10
48200;BME280;33990;44.602;10.976;2023-04-15T00:03:45;99888.81;;;18.70;47.07
48200;BME280;33990;44.602;10.976;2023-04-15T00:06:14;99892.34;;;18.70;47.13
48200;BME280;33990;44.602;10.976;2023-04-15T00:08:41;99885.28;;;18.69;46.88
48200;BME280;33990;44.602;10.976;2023-04-15T00:11:08;99888.81;;;18.70;47.23
48200;BME280;33990;44.602;10.976;2023-04-15T00:13:36;99885.28;;;18.69;47.18
48200;BME280;33990;44.602;10.976;2023-04-15T00:16:04;99887.94;;;18.69;47.04
48200;BME280;33990;44.602;10.976;2023-04-15T00:18:32;99881.75;;;18.69;47.10
48200;BME280;33990;44.602;10.976;2023-04-15T00:21:00;99884.44;;;18.69;47.10
48200;BME280;33990;44.602;10.976;2023-04-15T00:23:27;99870.19;;;18.68;47.09
48200;BME280;33990;44.602;10.976;2023-04-15T00:25:55;99878.22;;;18.68;47.07
48200;BME280;33990;44.602;10.976;2023-04-15T00:28:22;99872.03;;;18.68;47.11
48200;BME280;33990;44.602;10.976;2023-04-15T00:30:50;99866.66;;;18.68;47.14
48200;BME280;33990;44.602;10.976;2023-04-15T00:33:17;99865.78;;;18.67;47.05
48200;BME280;33990;44.602;10.976;2023-04-15T00:35:46;99860.44;;;18.67;47.11
48200;BME280;33990;44.602;10.976;2023-04-15T00:38:13;99861.31;;;18.68;47.03
48200;BME280;33990;44.602;10.976;2023-04-15T00:40:41;99859.59;;;18.67;47.07
48200;BME280;33990;44.602;10.976;2023-04-15T00:43:09;99867.63;;;18.67;47.19
48200;BME280;33990;44.602;10.976;2023-04-15T00:45:37;99866.81;;;18.66;47.11
48200;BME280;33990;44.602;10.976;2023-04-15T00:48:04;99873.00;;;18.67;46.93
48200;BME280;33990;44.602;10.976;2023-04-15T00:50:32;99866.81;;;18.66;47.11
48200;BME280;33990;44.602;10.976;2023-04-15T00:52:59;99872.16;;;18.66;46.79
48200;BME280;33990;44.602;10.976;2023-04-15T00:55:27;99866.81;;;18.66;47.00
48200;BME280;33990;44.602;10.976;2023-04-15T00:57:55;99872.16;;;18.66;46.77
48200;BME280;33990;44.602;10.976;2023-04-15T01:00:23;99868.47;;;18.67;47.08
48200;BME280;33990;44.602;10.976;2023-04-15T01:02:51;99876.69;;;18.66;47.09
48200;BME280;33990;44.602;10.976;2023-04-15T01:05:19;99872.16;;;18.66;47.05
48200;BME280;33990;44.602;10.976;2023-04-15T01:07:47;99873.16;;;18.65;47.01
48200;BME280;33990;44.602;10.976;2023-04-15T01:10:14;99879.38;;;18.66;47.01
48200;BME280;33990;44.602;10.976;2023-04-15T01:12:42;99874.00;;;18.66;46.96
48200;BME280;33990;44.602;10.976;2023-04-15T01:15:10;99875.84;;;18.65;47.04
48200;BME280;33990;44.602;10.976;2023-04-15T01:17:38;99878.53;;;18.65;47.04
48200;BME280;33990;44.602;10.976;2023-04-15T01:20:07;99874.16;;;18.64;46.99
48200;BME280;33990;44.602;10.976;2023-04-15T01:22:37;99882.22;;;18.64;47.00
48200;BME280;33990;44.602;10.976;2023-04-15T01:25:32;99881.38;;;18.64;47.09
48200;BME280;33990;44.602;10.976;2023-04-15T01:28:00;99876.00;;;18.64;47.08
48200;BME280;33990;44.602;10.976;2023-04-15T01:30:28;99873.31;;;18.64;47.15
48200;BME280;33990;44.602;10.976;2023-04-15T01:33:00;99875.13;;;18.63;47.07
48200;BME280;33990;44.602;10.976;2023-04-15T01:35:27;99876.84;;;18.64;47.02
48200;BME280;33990;44.602;10.976;2023-04-15T01:37:58;99872.47;;;18.63;47.05
48200;BME280;33990;44.602;10.976;2023-04-15T01:40:28;99875.13;;;18.63;47.07
48200;BME280;33990;44.602;10.976;2023-04-15T01:42:57;99882.34;;;18.63;47.06
48200;BME280;33990;44.602;10.976;2023-04-15T01:45:25;99872.47;;;18.63;47.11
48200;BME280;33990;44.602;10.976;2023-04-15T01:47:52;99875.31;;;18.62;47.17
48200;BME280;33990;44.602;10.976;2023-04-15T01:50:20;99878.81;;;18.62;47.18
48200;BME280;33990;44.602;10.976;2023-04-15T01:52:47;99876.97;;;18.63;47.00
48200;BME280;33990;44.602;10.976;2023-04-15T01:55:15;99873.47;;;18.62;47.08
48200;BME280;33990;44.602;10.976;2023-04-15T01:57:44;99876.13;;;18.62;47.03
48200;BME280;33990;44.602;10.976;2023-04-15T02:00:12;99870.78;;;18.62;47.15
48200;BME280;33990;44.602;10.976;2023-04-15T02:02:41;99872.63;;;18.62;47.18
48200;BME280;33990;44.602;10.976;2023-04-15T02:05:09;99876.13;;;18.62;47.09
48200;BME280;33990;44.602;10.976;2023-04-15T02:07:36;99873.47;;;18.62;47.04
48200;BME280;33990;44.602;10.976;2023-04-15T02:10:04;99885.19;;;18.61;47.11
48200;BME280;33990;44.602;10.976;2023-04-15T02:12:34;99890.53;;;18.61;47.07
48200;BME280;33990;44.602;10.976;2023-04-15T02:15:02;99888.69;;;18.62;47.18
48200;BME280;33990;44.602;10.976;2023-04-15T02:17:33;99890.53;;;18.61;47.08
48200;BME280;33990;44.602;10.976;2023-04-15T02:20:01;99890.53;;;18.61;46.83
48200;BME280;33990;44.602;10.976;2023-04-15T02:22:31;99890.53;;;18.61;46.96
48200;BME280;33990;44.602;10.976;2023-04-15T02:24:58;99889.69;;;18.61;46.98
48200;BME280;33990;44.602;10.976;2023-04-15T02:27:26;99887.03;;;18.61;46.87
48200;BME280;33990;44.602;10.976;2023-04-15T02:29:54;99893.38;;;18.60;47.05
48200;BME280;33990;44.602;10.976;2023-04-15T02:32:21;99892.38;;;18.61;46.95
48200;BME280;33990;44.602;10.976;2023-04-15T02:34:50;99894.22;;;18.60;47.06
48200;BME280;33990;44.602;10.976;2023-04-15T02:37:18;99886.31;;;18.59;46.86
48200;BME280;33990;44.602;10.976;2023-04-15T02:39:46;99891.53;;;18.60;46.98
48200;BME280;33990;44.602;10.976;2023-04-15T02:42:14;99894.34;;;18.59;47.00
48200;BME280;33990;44.602;10.976;2023-04-15T02:44:42;99890.84;;;18.58;46.87
48200;BME280;33990;44.602;10.976;2023-04-15T02:47:10;99890.84;;;18.58;46.81
48200;BME280;33990;44.602;10.976;2023-04-15T02:49:37;99889.16;;;18.57;47.02
48200;BME280;33990;44.602;10.976;2023-04-15T02:52:06;99890.00;;;18.58;47.00
48200;BME280;33990;44.602;10.976;2023-04-15T02:54:33;99894.53;;;18.57;46.97
48200;BME280;33990;44.602;10.976;2023-04-15T02:57:01;99891.84;;;18.57;46.88
48200;BME280;33990;44.602;10.976;2023-04-15T02:59:28;99890.84;;;18.58;47.24
48200;BME280;33990;44.602;10.976;2023-04-15T03:01:56;99888.31;;;18.57;46.72
48200;BME280;33990;44.602;10.976;2023-04-15T03:04:27;99891.84;;;18.57;47.15
48200;BME280;33990;44.602;10.976;2023-04-15T03:06:56;99885.63;;;18.57;46.86
48200;BME280;33990;44.602;10.976;2023-04-15T03:09:24;99882.13;;;18.56;46.99
48200;BME280;33990;44.602;10.976;2023-04-15T03:11:52;99882.97;;;18.57;47.22
48200;BME280;33990;44.602;10.976;2023-04-15T03:14:21;99882.97;;;18.57;47.02
48200;BME280;33990;44.602;10.976;2023-04-15T03:16:48;99875.91;;;18.56;47.06
48200;BME280;33990;44.602;10.976;2023-04-15T03:19:18;99875.91;;;18.56;47.05
48200;BME280;33990;44.602;10.976;2023-04-15T03:21:45;99877.72;;;18.55;47.13
48200;BME280;33990;44.602;10.976;2023-04-15T03:24:13;99880.41;;;18.55;47.22
48200;BME280;33990;44.602;10.976;2023-04-15T03:26:40;99883.97;;;18.56;47.24
48200;BME280;33990;44.602;10.976;2023-04-15T03:29:11;99879.56;;;18.54;47.11
48200;BME280;33990;44.602;10.976;2023-04-15T03:31:40;99878.59;;;18.56;47.16
48200;BME280;33990;44.602;10.976;2023-04-15T03:34:07;99885.75;;;18.55;47.11
48200;BME280;33990;44.602;10.976;2023-04-15T03:36:35;99886.63;;;18.56;47.27
48200;BME280;33990;44.602;10.976;2023-04-15T03:39:03;99880.41;;;18.55;47.22
48200;BME280;33990;44.602;10.976;2023-04-15T03:41:30;99876.88;;;18.54;47.04
48200;BME280;33990;44.602;10.976;2023-04-15T03:43:59;99873.38;;;18.54;47.23
48200;BME280;33990;44.602;10.976;2023-04-15T03:46:26;99884.09;;;18.54;47.22
48200;BME280;33990;44.602;10.976;2023-04-15T03:48:54;99886.75;;;18.54;47.24
48200;BME280;33990;44.602;10.976;2023-04-15T03:51:21;99884.09;;;18.54;47.26
48200;BME280;33990;44.602;10.976;2023-04-15T03:53:48;99885.94;;;18.53;47.12
48200;BME280;33990;44.602;10.976;2023-04-15T03:56:16;99887.78;;;18.53;47.15
48200;BME280;33990;44.602;10.976;2023-04-15T03:58:43;99882.41;;;18.53;47.15
48200;BME280;33990;44.602;10.976;2023-04-15T04:01:11;99890.44;;;18.53;47.15
48200;BME280;33990;44.602;10.976;2023-04-15T04:03:39;99883.25;;;18.53;47.19
48200;BME280;33990;44.602;10.976;2023-04-15T04:06:07;99884.94;;;18.54;47.12
48200;BME280;33990;44.602;10.976;2023-04-15T04:08:34;99890.44;;;18.53;47.13
48200;BME280;33990;44.602;10.976;2023-04-15T04:11:02;99888.59;;;18.53;47.13
48200;BME280;33990;44.602;10.976;2023-04-15T04:13:29;99893.13;;;18.53;47.11
48200;BME280;33990;44.602;10.976;2023-04-15T04:15:57;99899.31;;;18.53;47.00
48200;BME280;33990;44.602;10.976;2023-04-15T04:18:24;99900.47;;;18.51;47.11
48200;BME280;33990;44.602;10.976;2023-04-15T04:20:51;99898.50;;;18.53;47.15
48200;BME280;33990;44.602;10.976;2023-04-15T04:23:19;99909.38;;;18.51;47.14
48200;BME280;33990;44.602;10.976;2023-04-15T04:25:46;99911.06;;;18.52;47.34
48200;BME280;33990;44.602;10.976;2023-04-15T04:28:13;99918.25;;;18.52;47.23
48200;BME280;33990;44.602;10.976;2023-04-15T04:30:41;99912.19;;;18.50;47.31
48200;BME280;33990;44.602;10.976;2023-04-15T04:33:08;99914.72;;;18.51;47.26
48200;BME280;33990;44.602;10.976;2023-04-15T04:35:35;99918.38;;;18.50;47.29
48200;BME280;33990;44.602;10.976;2023-04-15T04:38:03;99921.06;;;18.50;47.29
48200;BME280;33990;44.602;10.976;2023-04-15T04:40:31;99921.91;;;18.51;47.36
48200;BME280;33990;44.602;10.976;2023-04-15T04:42:59;99928.13;;;18.51;47.40
48200;BME280;33990;44.602;10.976;2023-04-15T04:45:26;99928.13;;;18.51;47.19
48200;BME280;33990;44.602;10.976;2023-04-15T04:47:54;99915.69;;;18.50;47.20
48200;BME280;33990;44.602;10.976;2023-04-15T04:50:21;99924.59;;;18.51;47.21
48200;BME280;33990;44.602;10.976;2023-04-15T04:52:48;99928.97;;;18.52;47.29
48200;BME280;33990;44.602;10.976;2023-04-15T04:55:16;99927.25;;;18.51;47.07
48200;BME280;33990;44.602;10.976;2023-04-15T04:57:43;99934.47;;;18.50;47.10
48200;BME280;33990;44.602;10.976;2023-04-15T05:00:11;99936.31;;;18.50;47.10
48200;BME280;33990;44.602;10.976;2023-04-15T05:02:38;99940.81;;;18.49;47.12
48200;BME280;33990;44.602;10.976;2023-04-15T05:05:08;99939.97;;;18.49;47.21
48200;BME280;33990;44.602;10.976;2023-04-15T05:07:36;99948.69;;;18.51;47.24
48200;BME280;33990;44.602;10.976;2023-04-15T05:10:04;99947.19;;;18.48;47.20
48200;BME280;33990;44.602;10.976;2023-04-15T05:12:32;99950.69;;;18.49;47.16
48200;BME280;33990;44.602;10.976;2023-04-15T05:14:59;99956.06;;;18.49;47.34
48200;BME280;33990;44.602;10.976;2023-04-15T05:17:27;99950.69;;;18.49;47.44
48200;BME280;33990;44.602;10.976;2023-04-15T05:19:54;99961.41;;;18.49;47.30
48200;BME280;33990;44.602;10.976;2023-04-15T05:22:22;99968.63;;;18.48;47.49
48200;BME280;33990;44.602;10.976;2023-04-15T05:24:49;99960.59;;;18.48;47.36
48200;BME280;33990;44.602;10.976;2023-04-15T05:27:17;99967.78;;;18.48;47.45
48200;BME280;33990;44.602;10.976;2023-04-15T05:29:45;99968.63;;;18.48;47.51
48200;BME280;33990;44.602;10.976;2023-04-15T05:32:12;99967.78;;;18.48;47.38
48200;BME280;33990;44.602;10.976;2023-04-15T05:34:39;99969.63;;;18.47;47.41
48200;BME280;33990;44.602;10.976;2023-04-15T05:37:07;99968.75;;;18.47;47.33
48200;BME280;33990;44.602;10.976;2023-04-15T05:39:35;99973.16;;;18.48;47.24
48200;BME280;33990;44.602;10.976;2023-04-15T05:42:02;99968.75;;;18.47;47.29
48200;BME280;33990;44.602;10.976;2023-04-15T05:44:29;99978.50;;;18.48;47.21
48200;BME280;33990;44.602;10.976;2023-04-15T05:46:57;99974.97;;;18.47;47.12
48200;BME280;33990;44.602;10.976;2023-04-15T05:49:24;99980.34;;;18.47;47.24
48200;BME280;33990;44.602;10.976;2023-04-15T05:51:51;99984.84;;;18.47;47.48
48200;BME280;33990;44.602;10.976;2023-04-15T05:54:18;99984.84;;;18.47;47.24
48200;BME280;33990;44.602;10.976;2023-04-15T05:56:46;99989.22;;;18.48;47.28
48200;BME280;33990;44.602;10.976;2023-04-15T05:59:13;99992.88;;;18.47;47.29
48200;BME280;33990;44.602;10.976;2023-04-15T06:01:40;99989.34;;;18.46;47.26
48200;BME280;33990;44.602;10.976;2023-04-15T06:04:08;100000.91;;;18.47;47.22
48200;BME280;33990;44.602;10.976;2023-04-15T06:06:36;100006.28;;;18.47;47.47
48200;BME280;33990;44.602;10.976;2023-04-15T06:09:04;100005.31;;;18.48;47.28
48200;BME280;33990;44.602;10.976;2023-04-15T06:11:31;100002.63;;;18.48;47.29
48200;BME280;33990;44.602;10.976;2023-04-15T06:13:59;100007.16;;;18.47;47.34
48200;BME280;33990;44.602;10.976;2023-04-15T06:16:26;100002.63;;;18.48;47.26
48200;BME280;33990;44.602;10.976;2023-04-15T06:18:53;99997.94;;;18.50;47.25
48200;BME280;33990;44.602;10.976;2023-04-15T06:21:21;99992.59;;;18.50;47.03
48200;BME280;33990;44.602;10.976;2023-04-15T06:23:48;99995.25;;;18.50;46.66
48200;BME280;33990;44.602;10.976;2023-04-15T06:26:15;99996.94;;;18.51;46.34
48200;BME280;33990;44.602;10.976;2023-04-15T06:28:42;99996.94;;;18.51;46.01
48200;BME280;33990;44.602;10.976;2023-04-15T06:31:11;100002.31;;;18.51;46.20
48200;BME280;33990;44.602;10.976;2023-04-15T06:33:38;100001.34;;;18.52;45.86
48200;BME280;33990;44.602;10.976;2023-04-15T06:36:06;99999.50;;;18.52;46.08
48200;BME280;33990;44.602;10.976;2023-04-15T06:38:33;99998.66;;;18.52;46.06
48200;BME280;33990;44.602;10.976;2023-04-15T06:41:02;100004.03;;;18.52;46.13
48200;BME280;33990;44.602;10.976;2023-04-15T06:43:29;100002.19;;;18.52;46.00
48200;BME280;33990;44.602;10.976;2023-04-15T06:45:56;100002.03;;;18.54;45.71
48200;BME280;33990;44.602;10.976;2023-04-15T06:48:24;99997.66;;;18.53;45.90
48200;BME280;33990;44.602;10.976;2023-04-15T06:50:51;100003.88;;;18.53;45.51
48200;BME280;33990;44.602;10.976;2023-04-15T06:53:19;99998.50;;;18.53;45.56
48200;BME280;33990;44.602;10.976;2023-04-15T06:55:46;100002.88;;;18.54;45.32
48200;BME280;33990;44.602;10.976;2023-04-15T06:58:13;100004.56;;;18.56;45.60
48200;BME280;33990;44.602;10.976;2023-04-15T07:00:40;100009.94;;;18.56;45.30
48200;BME280;33990;44.602;10.976;2023-04-15T07:03:08;100009.78;;;18.57;46.16
48200;BME280;33990;44.602;10.976;2023-04-15T07:05:37;100012.31;;;18.59;47.31
48200;BME280;33990;44.602;10.976;2023-04-15T07:08:05;100006.94;;;18.59;47.27
48200;BME280;33990;44.602;10.976;2023-04-15T07:10:33;100004.97;;;18.61;46.46
48200;BME280;33990;44.602;10.976;2023-04-15T07:13:00;100010.34;;;18.61;45.83
48200;BME280;33990;44.602;10.976;2023-04-15T07:15:28;100008.50;;;18.61;46.01
48200;BME280;33990;44.602;10.976;2023-04-15T07:17:56;100021.75;;;18.63;45.99
48200;BME280;33990;44.602;10.976;2023-04-15T07:20:23;100017.22;;;18.63;46.04
48200;BME280;33990;44.602;10.976;2023-04-15T07:22:51;100016.25;;;18.64;46.21
48200;BME280;33990;44.602;10.976;2023-04-15T07:25:18;100012.56;;;18.65;46.27
48200;BME280;33990;44.602;10.976;2023-04-15T07:27:45;100016.94;;;18.66;46.34
48200;BME280;33990;44.602;10.976;2023-04-15T07:30:13;100018.63;;;18.67;45.94
48200;BME280;33990;44.602;10.976;2023-04-15T07:32:41;100015.94;;;18.67;46.14
48200;BME280;33990;44.602;10.976;2023-04-15T07:35:09;100010.56;;;18.67;46.21
48200;BME280;33990;44.602;10.976;2023-04-15T07:37:36;100010.44;;;18.69;46.22
48200;BME280;33990;44.602;10.976;2023-04-15T07:40:04;100013.84;;;18.71;46.21
48200;BME280;33990;44.602;10.976;2023-04-15T07:42:33;100013.00;;;18.70;46.33
48200;BME280;33990;44.602;10.976;2023-04-15T07:45:01;100014.69;;;18.71;46.12
48200;BME280;33990;44.602;10.976;2023-04-15T07:47:28;100017.22;;;18.73;46.29
48200;BME280;33990;44.602;10.976;2023-04-15T07:49:55;100004.81;;;18.72;46.17
48200;BME280;33990;44.602;10.976;2023-04-15T07:52:23;100011.72;;;18.74;46.13
48200;BME280;33990;44.602;10.976;2023-04-15T07:54:50;100007.19;;;18.75;46.88
48200;BME280;33990;44.602;10.976;2023-04-15T07:57:17;100006.22;;;18.76;46.83
48200;BME280;33990;44.602;10.976;2023-04-15T07:59:45;100013.25;;;18.77;46.80
48200;BME280;33990;44.602;10.976;2023-04-15T08:02:12;100008.75;;;18.77;46.44
48200;BME280;33990;44.602;10.976;2023-04-15T08:04:39;100018.47;;;18.78;46.63
48200;BME280;33990;44.602;10.976;2023-04-15T08:07:07;100021.16;;;18.78;46.48
48200;BME280;33990;44.602;10.976;2023-04-15T08:09:34;100026.38;;;18.80;46.20
48200;BME280;33990;44.602;10.976;2023-04-15T08:12:02;100022.69;;;18.81;45.96
48200;BME280;33990;44.602;10.976;2023-04-15T08:14:29;100020.00;;;18.81;46.05
48200;BME280;33990;44.602;10.976;2023-04-15T08:16:57;100022.53;;;18.83;45.91
48200;BME280;33990;44.602;10.976;2023-04-15T08:19:24;100033.81;;;18.86;45.72
48200;BME280;33990;44.602;10.976;2023-04-15T08:21:51;100022.25;;;18.86;46.51
48200;BME280;33990;44.602;10.976;2023-04-15T08:24:18;100027.63;;;18.86;46.14
48200;BME280;33990;44.602;10.976;2023-04-15T08:26:46;100028.44;;;18.86;46.17
48200;BME280;33990;44.602;10.976;2023-04-15T08:29:13;100030.13;;;18.87;46.44
48200;BME280;33990;44.602;10.976;2023-04-15T08:31:41;100030.13;;;18.87;46.34
48200;BME280;33990;44.602;10.976;2023-04-15T08:34:08;100024.47;;;18.90;46.74
48200;BME280;33990;44.602;10.976;2023-04-15T08:36:36;100025.19;;;18.92;46.21
48200;BME280;33990;44.602;10.976;2023-04-15T08:39:03;100024.19;;;18.93;46.14
48200;BME280;33990;44.602;10.976;2023-04-15T08:41:45;100025.88;;;18.94;46.60
48200;BME280;33990;44.602;10.976;2023-04-15T08:44:13;100015.97;;;18.95;46.71
48200;BME280;33990;44.602;10.976;2023-04-15T08:46:41;100029.41;;;18.95;46.90
48200;BME280;33990;44.602;10.976;2023-04-15T08:49:11;100027.56;;;18.95;46.38
48200;BME280;33990;44.602;10.976;2023-04-15T08:51:40;100034.06;;;18.93;46.20
48200;BME280;33990;44.602;10.976;2023-04-15T08:54:08;100027.88;;;18.92;45.27
48200;BME280;33990;44.602;10.976;2023-04-15T08:56:35;100030.41;;;18.94;46.67
48200;BME280;33990;44.602;10.976;2023-04-15T08:59:03;100028.72;;;18.93;46.67
48200;BME280;33990;44.602;10.976;2023-04-15T09:01:31;100021.50;;;18.93;46.72
48200;BME280;33990;44.602;10.976;2023-04-15T09:04:01;100026.72;;;18.95;46.41
48200;BME280;33990;44.602;10.976;2023-04-15T09:06:29;100028.44;;;18.96;46.72
48200;BME280;33990;44.602;10.976;2023-04-15T09:08:57;100028.44;;;18.96;46.57
48200;BME280;33990;44.602;10.976;2023-04-15T09:11:24;100030.78;;;18.99;45.50
48200;BME280;33990;44.602;10.976;2023-04-15T09:13:51;100020.06;;;18.99;46.21
48200;BME280;33990;44.602;10.976;2023-04-15T09:16:19;100019.94;;;19.00;45.71
48200;BME280;33990;44.602;10.976;2023-04-15T09:18:46;100018.09;;;19.01;45.93
48200;BME280;33990;44.602;10.976;2023-04-15T09:21:15;100018.22;;;18.99;45.47
48200;BME280;33990;44.602;10.976;2023-04-15T09:23:54;100013.84;;;18.98;44.53
48200;BME280;33990;44.602;10.976;2023-04-15T09:29:09;100011.34;;;18.97;45.24
48200;BME280;33990;44.602;10.976;2023-04-15T09:31:36;100009.31;;;18.99;45.83
48200;BME280;33990;44.602;10.976;2023-04-15T09:34:04;100003.00;;;19.00;45.71
48200;BME280;33990;44.602;10.976;2023-04-15T09:36:53;99995.63;;;19.02;45.97
48200;BME280;33990;44.602;10.976;2023-04-15T09:39:21;100007.91;;;19.05;45.60
48200;BME280;33990;44.602;10.976;2023-04-15T09:42:07;100003.75;;;19.10;45.62
48200;BME280;33990;44.602;10.976;2023-04-15T09:44:34;99998.69;;;19.07;44.89
48200;BME280;33990;44.602;10.976;2023-04-15T09:47:01;99997.09;;;18.96;43.63
48200;BME280;33990;44.602;10.976;2023-04-15T09:49:29;99996.28;;;18.86;44.02
48200;BME280;33990;44.602;10.976;2023-04-15T09:52:00;99988.28;;;18.76;45.28
48200;BME280;33990;44.602;10.976;2023-04-15T09:54:33;99990.25;;;18.74;46.09
48200;BME280;33990;44.602;10.976;2023-04-15T09:57:07;99984.91;;;18.74;45.99
48200;BME280;33990;44.602;10.976;2023-04-15T09:59:36;99983.59;;;18.78;45.78
48200;BME280;33990;44.602;10.976;2023-04-15T10:02:04;99981.47;;;18.82;45.95
48200;BME280;33990;44.602;10.976;2023-04-15T10:04:35;99977.66;;;18.85;45.90
48200;BME280;33990;44.602;10.976;2023-04-15T10:07:07;99981.88;;;18.87;45.91
48200;BME280;33990;44.602;10.976;2023-04-15T10:09:37;99972.97;;;18.87;46.06
48200;BME280;33990;44.602;10.976;2023-04-15T10:12:05;99973.69;;;18.89;45.78
48200;BME280;33990;44.602;10.976;2023-04-15T10:14:34;99976.03;;;18.92;46.21
48200;BME280;33990;44.602;10.976;2023-04-15T10:17:06;99975.38;;;18.90;46.07
48200;BME280;33990;44.602;10.976;2023-04-15T10:19:36;99971.69;;;18.91;45.98
48200;BME280;33990;44.602;10.976;2023-04-15T10:22:03;99969.72;;;18.93;45.95
48200;BME280;33990;44.602;10.976;2023-04-15T10:24:32;99958.97;;;18.93;45.38
48200;BME280;33990;44.602;10.976;2023-04-15T10:27:02;99962.34;;;18.95;45.95
48200;BME280;33990;44.602;10.976;2023-04-15T10:29:30;99956.97;;;18.95;45.68
48200;BME280;33990;44.602;10.976;2023-04-15T10:32:01;99956.84;;;18.96;45.46
48200;BME280;33990;44.602;10.976;2023-04-15T10:34:30;99953.16;;;18.97;45.48
48200;BME280;33990;44.602;10.976;2023-04-15T10:37:01;99958.38;;;18.99;45.59
48200;BME280;33990;44.602;10.976;2023-04-15T10:44:37;99949.63;;;18.97;45.56
48200;BME280;33990;44.602;10.976;2023-04-15T10:47:19;99947.97;;;18.96;45.72
48200;BME280;33990;44.602;10.976;2023-04-15T10:49:50;99954.00;;;18.98;44.88
48200;BME280;33990;44.602;10.976;2023-04-15T10:52:23;99950.47;;;18.97;45.31
48200;BME280;33990;44.602;10.976;2023-04-15T10:55:25;99946.97;;;18.97;45.23
48200;BME280;33990;44.602;10.976;2023-04-15T10:57:58;99941.44;;;18.98;44.74
48200;BME280;33990;44.602;10.976;2023-04-15T11:00:31;99937.75;;;18.99;44.88
48200;BME280;33990;44.602;10.976;2023-04-15T11:03:05;99934.22;;;18.99;46.05
48200;BME280;33990;44.602;10.976;2023-04-15T11:08:10;99939.28;;;19.02;46.24
48200;BME280;33990;44.602;10.976;2023-04-15T11:13:15;99940.84;;;19.05;46.23
48200;BME280;33990;44.602;10.976;2023-04-15T11:15:44;99934.47;;;19.06;45.54
48200;BME280;33990;44.602;10.976;2023-04-15T11:18:20;99935.16;;;19.08;46.20
48200;BME280;33990;44.602;10.976;2023-04-15T11:20:50;99930.66;;;19.08;47.44
48200;BME280;33990;44.602;10.976;2023-04-15T11:23:19;99933.34;;;19.08;47.98
48200;BME280;33990;44.602;10.976;2023-04-15T11:25:54;99937.00;;;19.07;47.44
48200;BME280;33990;44.602;10.976;2023-04-15T11:28:28;99928.94;;;19.07;48.01
48200;BME280;33990;44.602;10.976;2023-04-15T11:30:56;99922.91;;;19.05;48.09
48200;BME280;33990;44.602;10.976;2023-04-15T11:33:24;99933.47;;;19.07;47.95
48200;BME280;33990;44.602;10.976;2023-04-15T11:35:53;99922.75;;;19.07;48.83
48200;BME280;33990;44.602;10.976;2023-04-15T11:38:21;99918.38;;;19.06;47.75
48200;BME280;33990;44.602;10.976;2023-04-15T11:40:49;99922.75;;;19.07;48.56
48200;BME280;33990;44.602;10.976;2023-04-15T11:43:21;99917.53;;;19.05;48.36
48200;BME280;33990;44.602;10.976;2023-04-15T11:45:59;99922.91;;;19.05;48.13
48200;BME280;33990;44.602;10.976;2023-04-15T11:48:34;99915.84;;;19.04;48.48
48200;BME280;33990;44.602;10.976;2023-04-15T11:51:04;99918.53;;;19.04;48.37
48200;BME280;33990;44.602;10.976;2023-04-15T11:56:04;99916.69;;;19.05;47.91
48200;BME280;33990;44.602;10.976;2023-04-15T11:58:34;99917.38;;;19.07;48.45
48200;BME280;33990;44.602;10.976;2023-04-15T12:01:05;99920.06;;;19.07;48.75
48200;BME280;33990;44.602;10.976;2023-04-15T12:03:40;99917.38;;;19.07;48.88
48200;BME280;33990;44.602;10.976;2023-04-15T12:06:22;99912.84;;;19.07;48.97
48200;BME280;33990;44.602;10.976;2023-04-15T12:14:28;99914.56;;;19.08;48.60
48200;BME280;33990;44.602;10.976;2023-04-15T12:16:56;99906.50;;;19.08;48.75
48200;BME280;33990;44.602;10.976;2023-04-15T12:19:38;99912.72;;;19.09;48.77
48200;BME280;33990;44.602;10.976;2023-04-15T12:22:11;99904.50;;;19.10;48.94
48200;BME280;33990;44.602;10.976;2023-04-15T12:24:39;99911.53;;;19.11;48.88
48200;BME280;33990;44.602;10.976;2023-04-15T12:27:12;99908.88;;;19.11;48.74
48200;BME280;33990;44.602;10.976;2023-04-15T12:29:40;99903.50;;;19.11;48.98
48200;BME280;33990;44.602;10.976;2023-04-15T12:32:13;99906.03;;;19.13;49.04
48200;BME280;33990;44.602;10.976;2023-04-15T12:34:44;99910.56;;;19.12;49.21
48200;BME280;33990;44.602;10.976;2023-04-15T12:37:16;99914.94;;;19.13;49.13
48200;BME280;33990;44.602;10.976;2023-04-15T12:39:45;99910.56;;;19.12;49.24
48200;BME280;33990;44.602;10.976;2023-04-15T12:42:15;99906.19;;;19.11;48.98
48200;BME280;33990;44.602;10.976;2023-04-15T12:44:43;99900.97;;;19.10;48.96
48200;BME280;33990;44.602;10.976;2023-04-15T12:47:11;99906.34;;;19.10;48.89
48200;BME280;33990;44.602;10.976;2023-04-15T12:49:38;99900.28;;;19.08;48.79
48200;BME280;33990;44.602;10.976;2023-04-15T12:52:06;99901.16;;;19.08;48.88
48200;BME280;33990;44.602;10.976;2023-04-15T12:54:34;99903.81;;;19.08;48.62
48200;BME280;33990;44.602;10.976;2023-04-15T12:57:02;99896.75;;;19.07;48.75
48200;BME280;33990;44.602;10.976;2023-04-15T12:59:34;99896.91;;;19.06;48.67
48200;BME280;33990;44.602;10.976;2023-04-15T13:02:02;99894.22;;;19.06;48.51
48200;BME280;33990;44.602;10.976;2023-04-15T13:04:30;99894.22;;;19.06;48.32
48200;BME280;33990;44.602;10.976;2023-04-15T13:06:58;99901.44;;;19.05;48.31
48200;BME280;33990;44.602;10.976;2023-04-15T13:09:25;99892.56;;;19.05;48.31
48200;BME280;33990;44.602;10.976;2023-04-15T13:11:53;99903.13;;;19.06;48.24
48200;BME280;33990;44.602;10.976;2023-04-15T13:14:20;99904.97;;;19.06;48.21
48200;BME280;33990;44.602;10.976;2023-04-15T13:16:48;99894.22;;;19.06;48.28